sensor_id;sensor_type;location;lat;lon;timestamp;temperature;humidity
21568;DHT22;10944;42.590;12.630;2022-08-11T00:00:36;21.70;97.20
21568;DHT22;10944;42.590;12.630;2022-08-11T00:03:07;21.70;97.30
21568;DHT22;10944;42.590;12.630;2022-08-11T00:05:45;21.60;97.40
21568;DHT22;10944;42.590;12.630;2022-08-11T00:08:23;21.60;97.40
21568;DHT22;10944;42.590;12.630;2022-08-11T00:10:55;21.50;97.40
21568;DHT22;10944;42.590;12.630;2022-08-11T00:13:22;21.50;97.60
21568;DHT22;10944;42.590;12.630;2022-08-11T00:15:55;21.40;97.70
21568;DHT22;10944;42.590;12.630;2022-08-11T00:18:21;21.40;97.80
21568;DHT22;10944;42.590;12.630;2022-08-11T00:20:48;21.30;97.90
21568;DHT22;10944;42.590;12.630;2022-08-11T00:23:16;21.30;98.00
21568;DHT22;10944;42.590;12.630;2022-08-11T00:25:50;21.20;98.10
21568;DHT22;10944;42.590;12.630;2022-08-11T00:28:32;21.20;98.10
21568;DHT22;10944;42.590;12.630;2022-08-11T00:31:03;21.10;98.30
21568;DHT22;10944;42.590;12.630;2022-08-11T00:33:48;21.00;98.30
21568;DHT22;10944;42.590;12.630;2022-08-11T00:36:18;21.00;98.60
21568;DHT22;10944;42.590;12.630;2022-08-11T00:38:47;21.00;98.70
21568;DHT22;10944;42.590;12.630;2022-08-11T00:41:38;21.00;98.70
21568;DHT22;10944;42.590;12.630;2022-08-11T00:47:14;20.90;98.70
21568;DHT22;10944;42.590;12.630;2022-08-11T00:50:05;21.00;98.70
21568;DHT22;10944;42.590;12.630;2022-08-11T01:04:15;20.50;99.40
21568;DHT22;10944;42.590;12.630;2022-08-11T01:44:20;20.20;99.90
21568;DHT22;10944;42.590;12.630;2022-08-11T01:50:22;20.20;99.90
21568;DHT22;10944;42.590;12.630;2022-08-11T01:56:09;20.10;99.90
21568;DHT22;10944;42.590;12.630;2022-08-11T01:58:49;20.10;99.90
21568;DHT22;10944;42.590;12.630;2022-08-11T02:07:55;20.00;99.90
21568;DHT22;10944;42.590;12.630;2022-08-11T02:16:09;19.80;99.90
21568;DHT22;10944;42.590;12.630;2022-08-11T02:18:39;19.80;99.90
21568;DHT22;10944;42.590;12.630;2022-08-11T02:22:14;19.80;99.90
21568;DHT22;10944;42.590;12.630;2022-08-11T02:27:23;19.60;99.90
21568;DHT22;10944;42.590;12.630;2022-08-11T02:32:23;19.70;99.90
21568;DHT22;10944;42.590;12.630;2022-08-11T02:35:19;19.80;99.90
21568;DHT22;10944;42.590;12.630;2022-08-11T02:40:56;19.80;99.90
21568;DHT22;10944;42.590;12.630;2022-08-11T02:43:49;19.90;99.90
21568;DHT22;10944;42.590;12.630;2022-08-11T02:50:00;19.80;99.90
21568;DHT22;10944;42.590;12.630;2022-08-11T02:58:43;19.70;99.90
21568;DHT22;10944;42.590;12.630;2022-08-11T03:01:43;19.70;99.90
21568;DHT22;10944;42.590;12.630;2022-08-11T03:04:16;19.70;99.90
21568;DHT22;10944;42.590;12.630;2022-08-11T03:06:53;19.60;99.90
21568;DHT22;10944;42.590;12.630;2022-08-11T03:12:55;19.60;99.90
21568;DHT22;10944;42.590;12.630;2022-08-11T03:15:49;19.60;99.90
21568;DHT22;10944;42.590;12.630;2022-08-11T03:18:49;19.50;99.90
21568;DHT22;10944;42.590;12.630;2022-08-11T03:21:28;19.50;99.90
21568;DHT22;10944;42.590;12.630;2022-08-11T03:26:35;19.50;99.90
21568;DHT22;10944;42.590;12.630;2022-08-11T03:29:19;19.40;99.90
21568;DHT22;10944;42.590;12.630;2022-08-11T03:31:54;19.40;99.90
21568;DHT22;10944;42.590;12.630;2022-08-11T03:34:25;19.40;99.90
21568;DHT22;10944;42.590;12.630;2022-08-11T03:39:56;19.30;99.90
21568;DHT22;10944;42.590;12.630;2022-08-11T03:48:08;19.20;99.90
21568;DHT22;10944;42.590;12.630;2022-08-11T04:02:33;19.00;99.90
21568;DHT22;10944;42.590;12.630;2022-08-11T04:16:51;19.00;99.90
21568;DHT22;10944;42.590;12.630;2022-08-11T04:35:54;19.10;99.90
21568;DHT22;10944;42.590;12.630;2022-08-11T04:47:16;19.50;99.90
21568;DHT22;10944;42.590;12.630;2022-08-11T04:53:39;19.50;99.90
21568;DHT22;10944;42.590;12.630;2022-08-11T04:56:28;19.50;99.90
21568;DHT22;10944;42.590;12.630;2022-08-11T04:59:42;19.50;99.90
21568;DHT22;10944;42.590;12.630;2022-08-11T05:06:03;19.70;99.90
21568;DHT22;10944;42.590;12.630;2022-08-11T05:16:58;20.10;99.90
21568;DHT22;10944;42.590;12.630;2022-08-11T05:19:46;20.20;99.90
21568;DHT22;10944;42.590;12.630;2022-08-11T05:22:31;20.50;99.90
21568;DHT22;10944;42.590;12.630;2022-08-11T05:25:19;20.80;99.90
21568;DHT22;10944;42.590;12.630;2022-08-11T05:28:11;20.90;99.90
21568;DHT22;10944;42.590;12.630;2022-08-11T05:30:59;21.00;99.90
21568;DHT22;10944;42.590;12.630;2022-08-11T05:33:50;21.20;99.90
21568;DHT22;10944;42.590;12.630;2022-08-11T05:36:44;21.40;99.90
21568;DHT22;10944;42.590;12.630;2022-08-11T05:39:19;21.60;99.90
21568;DHT22;10944;42.590;12.630;2022-08-11T05:42:06;21.70;99.90
21568;DHT22;10944;42.590;12.630;2022-08-11T05:44:50;21.80;99.80
21568;DHT22;10944;42.590;12.630;2022-08-11T05:47:36;22.10;99.70
21568;DHT22;10944;42.590;12.630;2022-08-11T05:50:22;22.30;99.50
21568;DHT22;10944;42.590;12.630;2022-08-11T05:53:12;22.50;99.20
21568;DHT22;10944;42.590;12.630;2022-08-11T05:55:57;22.50;99.00
21568;DHT22;10944;42.590;12.630;2022-08-11T05:58:44;22.50;99.00
21568;DHT22;10944;42.590;12.630;2022-08-11T06:01:29;22.60;99.20
21568;DHT22;10944;42.590;12.630;2022-08-11T06:03:57;22.60;98.60
21568;DHT22;10944;42.590;12.630;2022-08-11T06:06:45;22.70;99.00
21568;DHT22;10944;42.590;12.630;2022-08-11T06:09:21;22.80;98.70
21568;DHT22;10944;42.590;12.630;2022-08-11T06:11:48;22.90;98.40
21568;DHT22;10944;42.590;12.630;2022-08-11T06:14:14;22.80;98.30
21568;DHT22;10944;42.590;12.630;2022-08-11T06:16:41;23.00;98.50
21568;DHT22;10944;42.590;12.630;2022-08-11T06:19:08;23.10;98.20
21568;DHT22;10944;42.590;12.630;2022-08-11T06:21:35;23.20;98.10
21568;DHT22;10944;42.590;12.630;2022-08-11T06:24:11;23.40;97.80
21568;DHT22;10944;42.590;12.630;2022-08-11T06:26:38;23.30;97.60
21568;DHT22;10944;42.590;12.630;2022-08-11T06:29:05;23.50;97.80
21568;DHT22;10944;42.590;12.630;2022-08-11T06:31:31;23.50;97.70
21568;DHT22;10944;42.590;12.630;2022-08-11T06:36:37;23.70;97.20
21568;DHT22;10944;42.590;12.630;2022-08-11T06:40:24;23.90;97.30
21568;DHT22;10944;42.590;12.630;2022-08-11T06:47:51;24.10;97.20
21568;DHT22;10944;42.590;12.630;2022-08-11T06:50:21;24.20;96.90
21568;DHT22;10944;42.590;12.630;2022-08-11T06:53:07;24.30;96.50
21568;DHT22;10944;42.590;12.630;2022-08-11T06:55:35;24.30;96.30
21568;DHT22;10944;42.590;12.630;2022-08-11T06:58:30;24.30;96.40
21568;DHT22;10944;42.590;12.630;2022-08-11T07:01:18;24.50;96.20
21568;DHT22;10944;42.590;12.630;2022-08-11T07:03:58;24.60;96.00
21568;DHT22;10944;42.590;12.630;2022-08-11T07:09:23;24.60;95.80
21568;DHT22;10944;42.590;12.630;2022-08-11T07:12:42;24.70;95.40
21568;DHT22;10944;42.590;12.630;2022-08-11T07:15:32;24.90;95.60
21568;DHT22;10944;42.590;12.630;2022-08-11T07:18:20;25.10;95.40
21568;DHT22;10944;42.590;12.630;2022-08-11T07:21:28;25.30;95.00
21568;DHT22;10944;42.590;12.630;2022-08-11T07:24:32;25.40;94.80
21568;DHT22;10944;42.590;12.630;2022-08-11T07:27:19;25.50;94.70
21568;DHT22;10944;42.590;12.630;2022-08-11T07:30:09;25.60;94.40
21568;DHT22;10944;42.590;12.630;2022-08-11T07:32:49;25.50;94.60
21568;DHT22;10944;42.590;12.630;2022-08-11T07:35:17;25.60;94.20
21568;DHT22;10944;42.590;12.630;2022-08-11T07:37:49;25.80;94.40
21568;DHT22;10944;42.590;12.630;2022-08-11T07:40:20;26.00;94.10
21568;DHT22;10944;42.590;12.630;2022-08-11T07:42:48;26.10;93.80
21568;DHT22;10944;42.590;12.630;2022-08-11T07:45:14;25.90;93.80
21568;DHT22;10944;42.590;12.630;2022-08-11T07:47:59;25.90;93.70
21568;DHT22;10944;42.590;12.630;2022-08-11T07:50:44;25.80;93.70
21568;DHT22;10944;42.590;12.630;2022-08-11T07:53:30;26.00;93.90
21568;DHT22;10944;42.590;12.630;2022-08-11T07:55:59;26.00;93.60
21568;DHT22;10944;42.590;12.630;2022-08-11T07:58:26;26.00;93.40
21568;DHT22;10944;42.590;12.630;2022-08-11T08:01:18;25.90;93.00
21568;DHT22;10944;42.590;12.630;2022-08-11T08:04:04;26.10;94.00
21568;DHT22;10944;42.590;12.630;2022-08-11T08:06:49;26.40;93.30
21568;DHT22;10944;42.590;12.630;2022-08-11T08:09:34;26.40;92.90
21568;DHT22;10944;42.590;12.630;2022-08-11T08:12:23;26.60;92.70
21568;DHT22;10944;42.590;12.630;2022-08-11T08:15:09;26.60;92.40
21568;DHT22;10944;42.590;12.630;2022-08-11T08:17:56;26.80;92.50
21568;DHT22;10944;42.590;12.630;2022-08-11T08:20:45;27.00;92.20
21568;DHT22;10944;42.590;12.630;2022-08-11T08:23:12;27.10;91.80
21568;DHT22;10944;42.590;12.630;2022-08-11T08:25:40;27.30;91.60
21568;DHT22;10944;42.590;12.630;2022-08-11T08:28:09;27.50;91.60
21568;DHT22;10944;42.590;12.630;2022-08-11T08:30:36;27.70;91.20
21568;DHT22;10944;42.590;12.630;2022-08-11T08:33:30;27.60;91.00
21568;DHT22;10944;42.590;12.630;2022-08-11T08:35:59;27.70;91.50
21568;DHT22;10944;42.590;12.630;2022-08-11T08:38:49;27.80;90.90
21568;DHT22;10944;42.590;12.630;2022-08-11T08:41:21;27.80;90.60
21568;DHT22;10944;42.590;12.630;2022-08-11T08:43:49;28.00;90.80
21568;DHT22;10944;42.590;12.630;2022-08-11T08:46:19;28.20;90.20
21568;DHT22;10944;42.590;12.630;2022-08-11T08:48:46;28.30;90.40
21568;DHT22;10944;42.590;12.630;2022-08-11T08:51:13;28.50;90.10
21568;DHT22;10944;42.590;12.630;2022-08-11T08:54:10;28.50;90.00
21568;DHT22;10944;42.590;12.630;2022-08-11T08:56:39;28.70;89.50
21568;DHT22;10944;42.590;12.630;2022-08-11T08:59:05;28.90;89.40
21568;DHT22;10944;42.590;12.630;2022-08-11T09:01:52;28.90;88.50
21568;DHT22;10944;42.590;12.630;2022-08-11T09:04:20;29.00;88.30
21568;DHT22;10944;42.590;12.630;2022-08-11T09:06:47;29.10;88.20
21568;DHT22;10944;42.590;12.630;2022-08-11T09:09:13;29.10;88.10
21568;DHT22;10944;42.590;12.630;2022-08-11T09:11:43;29.30;88.20
21568;DHT22;10944;42.590;12.630;2022-08-11T09:14:26;29.30;87.70
21568;DHT22;10944;42.590;12.630;2022-08-11T09:17:20;29.20;87.70
21568;DHT22;10944;42.590;12.630;2022-08-11T09:19:48;29.20;87.30
21568;DHT22;10944;42.590;12.630;2022-08-11T09:22:19;29.30;87.20
21568;DHT22;10944;42.590;12.630;2022-08-11T09:25:05;29.40;86.10
21568;DHT22;10944;42.590;12.630;2022-08-11T09:27:52;29.20;86.50
21568;DHT22;10944;42.590;12.630;2022-08-11T09:30:19;29.20;87.30
21568;DHT22;10944;42.590;12.630;2022-08-11T09:32:45;29.20;86.60
21568;DHT22;10944;42.590;12.630;2022-08-11T09:35:11;29.40;86.20
21568;DHT22;10944;42.590;12.630;2022-08-11T09:37:39;29.60;86.40
21568;DHT22;10944;42.590;12.630;2022-08-11T09:40:24;29.80;85.60
21568;DHT22;10944;42.590;12.630;2022-08-11T09:42:54;29.80;85.20
21568;DHT22;10944;42.590;12.630;2022-08-11T09:45:40;29.90;84.90
21568;DHT22;10944;42.590;12.630;2022-08-11T09:48:10;29.80;84.00
21568;DHT22;10944;42.590;12.630;2022-08-11T09:50:36;29.70;84.40
21568;DHT22;10944;42.590;12.630;2022-08-11T09:53:04;29.70;84.20
21568;DHT22;10944;42.590;12.630;2022-08-11T09:55:32;29.90;83.50
21568;DHT22;10944;42.590;12.630;2022-08-11T09:57:59;30.00;83.90
21568;DHT22;10944;42.590;12.630;2022-08-11T10:00:50;30.30;82.30
21568;DHT22;10944;42.590;12.630;2022-08-11T10:03:24;30.10;81.70
21568;DHT22;10944;42.590;12.630;2022-08-11T10:05:55;30.30;83.00
21568;DHT22;10944;42.590;12.630;2022-08-11T10:08:42;30.70;82.40
21568;DHT22;10944;42.590;12.630;2022-08-11T10:11:11;30.80;81.60
21568;DHT22;10944;42.590;12.630;2022-08-11T10:13:42;31.00;81.40
21568;DHT22;10944;42.590;12.630;2022-08-11T10:16:29;30.90;79.90
21568;DHT22;10944;42.590;12.630;2022-08-11T10:18:57;30.80;80.30
21568;DHT22;10944;42.590;12.630;2022-08-11T10:21:45;30.70;79.50
21568;DHT22;10944;42.590;12.630;2022-08-11T10:24:32;30.50;80.20
21568;DHT22;10944;42.590;12.630;2022-08-11T10:27:17;30.60;80.70
21568;DHT22;10944;42.590;12.630;2022-08-11T10:29:43;30.90;79.60
21568;DHT22;10944;42.590;12.630;2022-08-11T10:32:28;31.00;78.90
21568;DHT22;10944;42.590;12.630;2022-08-11T10:35:17;30.80;78.80
21568;DHT22;10944;42.590;12.630;2022-08-11T10:37:45;30.90;79.60
21568;DHT22;10944;42.590;12.630;2022-08-11T10:40:17;30.90;79.70
21568;DHT22;10944;42.590;12.630;2022-08-11T10:42:44;31.00;78.90
21568;DHT22;10944;42.590;12.630;2022-08-11T10:45:38;31.40;79.20
21568;DHT22;10944;42.590;12.630;2022-08-11T10:48:27;31.50;77.90
21568;DHT22;10944;42.590;12.630;2022-08-11T10:50:54;31.70;78.30
21568;DHT22;10944;42.590;12.630;2022-08-11T10:53:45;31.70;77.20
21568;DHT22;10944;42.590;12.630;2022-08-11T10:56:34;31.70;76.80
21568;DHT22;10944;42.590;12.630;2022-08-11T10:59:19;31.70;78.10
21568;DHT22;10944;42.590;12.630;2022-08-11T11:01:47;31.70;76.90
21568;DHT22;10944;42.590;12.630;2022-08-11T11:04:15;31.60;77.00
21568;DHT22;10944;42.590;12.630;2022-08-11T11:14:52;31.50;77.40
21568;DHT22;10944;42.590;12.630;2022-08-11T11:17:47;31.30;77.50
21568;DHT22;10944;42.590;12.630;2022-08-11T11:23:07;30.60;78.00
21568;DHT22;10944;42.590;12.630;2022-08-11T11:25:45;30.40;78.40
21568;DHT22;10944;42.590;12.630;2022-08-11T11:36:50;30.10;78.20
21568;DHT22;10944;42.590;12.630;2022-08-11T11:39:29;30.20;79.00
21568;DHT22;10944;42.590;12.630;2022-08-11T11:41:58;30.30;78.40
21568;DHT22;10944;42.590;12.630;2022-08-11T11:44:26;30.30;78.00
21568;DHT22;10944;42.590;12.630;2022-08-11T11:46:53;30.40;77.30
21568;DHT22;10944;42.590;12.630;2022-08-11T11:49:26;30.60;77.20
21568;DHT22;10944;42.590;12.630;2022-08-11T11:51:53;30.60;76.80
21568;DHT22;10944;42.590;12.630;2022-08-11T11:54:25;30.50;76.50
21568;DHT22;10944;42.590;12.630;2022-08-11T11:56:54;30.50;77.20
21568;DHT22;10944;42.590;12.630;2022-08-11T11:59:21;30.60;77.20
21568;DHT22;10944;42.590;12.630;2022-08-11T12:02:10;30.50;75.80
21568;DHT22;10944;42.590;12.630;2022-08-11T12:04:40;30.60;76.40
21568;DHT22;10944;42.590;12.630;2022-08-11T12:07:07;30.60;76.80
21568;DHT22;10944;42.590;12.630;2022-08-11T12:09:53;30.60;75.80
21568;DHT22;10944;42.590;12.630;2022-08-11T12:12:20;30.60;76.50
21568;DHT22;10944;42.590;12.630;2022-08-11T12:15:06;30.60;76.60
21568;DHT22;10944;42.590;12.630;2022-08-11T12:17:34;30.80;77.50
21568;DHT22;10944;42.590;12.630;2022-08-11T12:20:02;31.20;76.20
21568;DHT22;10944;42.590;12.630;2022-08-11T12:22:29;31.60;75.40
21568;DHT22;10944;42.590;12.630;2022-08-11T12:25:14;31.60;73.20
21568;DHT22;10944;42.590;12.630;2022-08-11T12:28:00;31.80;73.60
21568;DHT22;10944;42.590;12.630;2022-08-11T12:30:27;31.90;72.90
21568;DHT22;10944;42.590;12.630;2022-08-11T12:32:53;32.00;72.80
21568;DHT22;10944;42.590;12.630;2022-08-11T12:35:19;31.90;72.60
21568;DHT22;10944;42.590;12.630;2022-08-11T12:37:52;32.00;72.40
21568;DHT22;10944;42.590;12.630;2022-08-11T12:40:25;31.90;72.90
21568;DHT22;10944;42.590;12.630;2022-08-11T12:43:13;31.90;72.80
21568;DHT22;10944;42.590;12.630;2022-08-11T12:46:01;31.60;72.00
21568;DHT22;10944;42.590;12.630;2022-08-11T12:48:32;31.30;72.50
21568;DHT22;10944;42.590;12.630;2022-08-11T12:51:22;31.20;72.60
21568;DHT22;10944;42.590;12.630;2022-08-11T12:54:16;31.20;73.00
21568;DHT22;10944;42.590;12.630;2022-08-11T12:57:52;31.40;70.50
21568;DHT22;10944;42.590;12.630;2022-08-11T13:00:06;31.50;71.50
21568;DHT22;10944;42.590;12.630;2022-08-11T13:02:51;31.80;72.40
21568;DHT22;10944;42.590;12.630;2022-08-11T13:05:37;32.00;71.30
21568;DHT22;10944;42.590;12.630;2022-08-11T13:08:03;32.00;71.30
21568;DHT22;10944;42.590;12.630;2022-08-11T13:10:32;31.90;69.10
21568;DHT22;10944;42.590;12.630;2022-08-11T13:13:17;31.80;70.10
21568;DHT22;10944;42.590;12.630;2022-08-11T13:15:47;31.50;70.00
21568;DHT22;10944;42.590;12.630;2022-08-11T13:18:18;31.20;70.50
21568;DHT22;10944;42.590;12.630;2022-08-11T13:20:51;31.20;70.50
21568;DHT22;10944;42.590;12.630;2022-08-11T13:23:17;31.10;70.60
21568;DHT22;10944;42.590;12.630;2022-08-11T13:25:44;30.90;71.10
21568;DHT22;10944;42.590;12.630;2022-08-11T13:28:10;30.90;71.20
21568;DHT22;10944;42.590;12.630;2022-08-11T13:30:37;30.80;71.00
21568;DHT22;10944;42.590;12.630;2022-08-11T13:33:22;30.80;71.10
21568;DHT22;10944;42.590;12.630;2022-08-11T13:35:51;30.90;71.00
21568;DHT22;10944;42.590;12.630;2022-08-11T13:38:19;30.80;71.10
21568;DHT22;10944;42.590;12.630;2022-08-11T13:40:47;30.90;71.60
21568;DHT22;10944;42.590;12.630;2022-08-11T13:43:14;30.90;71.10
21568;DHT22;10944;42.590;12.630;2022-08-11T13:45:41;30.70;70.70
21568;DHT22;10944;42.590;12.630;2022-08-11T13:48:11;30.70;70.80
21568;DHT22;10944;42.590;12.630;2022-08-11T13:50:37;30.50;70.90
21568;DHT22;10944;42.590;12.630;2022-08-11T13:53:24;30.40;70.90
21568;DHT22;10944;42.590;12.630;2022-08-11T13:55:51;30.70;71.00
21568;DHT22;10944;42.590;12.630;2022-08-11T13:58:18;31.00;70.30
21568;DHT22;10944;42.590;12.630;2022-08-11T14:00:48;31.30;69.80
21568;DHT22;10944;42.590;12.630;2022-08-11T14:03:18;31.30;69.20
21568;DHT22;10944;42.590;12.630;2022-08-11T14:05:50;31.30;69.20
21568;DHT22;10944;42.590;12.630;2022-08-11T14:08:21;31.30;69.00
21568;DHT22;10944;42.590;12.630;2022-08-11T14:10:49;31.20;69.20
21568;DHT22;10944;42.590;12.630;2022-08-11T14:13:42;31.00;68.80
21568;DHT22;10944;42.590;12.630;2022-08-11T14:16:25;30.50;69.20
21568;DHT22;10944;42.590;12.630;2022-08-11T14:18:53;30.40;69.50
21568;DHT22;10944;42.590;12.630;2022-08-11T14:21:23;30.60;70.00
21568;DHT22;10944;42.590;12.630;2022-08-11T14:24:09;30.80;69.00
21568;DHT22;10944;42.590;12.630;2022-08-11T14:26:38;30.90;69.90
21568;DHT22;10944;42.590;12.630;2022-08-11T14:29:12;31.20;68.80
21568;DHT22;10944;42.590;12.630;2022-08-11T14:32:00;31.10;69.10
21568;DHT22;10944;42.590;12.630;2022-08-11T14:34:27;31.30;68.70
21568;DHT22;10944;42.590;12.630;2022-08-11T14:37:04;31.60;67.90
21568;DHT22;10944;42.590;12.630;2022-08-11T14:39:35;31.30;67.60
21568;DHT22;10944;42.590;12.630;2022-08-11T14:42:05;31.10;69.00
21568;DHT22;10944;42.590;12.630;2022-08-11T14:44:52;30.70;68.80
21568;DHT22;10944;42.590;12.630;2022-08-11T14:47:41;30.70;69.10
21568;DHT22;10944;42.590;12.630;2022-08-11T14:50:15;30.70;68.90
21568;DHT22;10944;42.590;12.630;2022-08-11T14:55:45;30.20;69.70
21568;DHT22;10944;42.590;12.630;2022-08-11T14:58:30;30.10;69.60
21568;DHT22;10944;42.590;12.630;2022-08-11T15:01:00;29.90;70.10
21568;DHT22;10944;42.590;12.630;2022-08-11T15:03:29;30.00;71.10
21568;DHT22;10944;42.590;12.630;2022-08-11T15:05:58;30.00;70.30
21568;DHT22;10944;42.590;12.630;2022-08-11T15:08:35;29.90;70.40
21568;DHT22;10944;42.590;12.630;2022-08-11T15:11:28;29.90;70.40
21568;DHT22;10944;42.590;12.630;2022-08-11T15:14:13;29.90;70.40
21568;DHT22;10944;42.590;12.630;2022-08-11T15:16:43;29.80;70.30
21568;DHT22;10944;42.590;12.630;2022-08-11T15:19:28;29.80;70.20
21568;DHT22;10944;42.590;12.630;2022-08-11T15:21:55;29.80;70.30
21568;DHT22;10944;42.590;12.630;2022-08-11T15:24:40;29.80;70.30
21568;DHT22;10944;42.590;12.630;2022-08-11T15:27:12;29.70;70.40
21568;DHT22;10944;42.590;12.630;2022-08-11T15:29:58;29.70;70.20
21568;DHT22;10944;42.590;12.630;2022-08-11T15:32:44;29.70;71.00
21568;DHT22;10944;42.590;12.630;2022-08-11T15:35:30;29.70;71.80
21568;DHT22;10944;42.590;12.630;2022-08-11T15:38:16;29.90;71.50
21568;DHT22;10944;42.590;12.630;2022-08-11T15:40:43;30.10;70.60
21568;DHT22;10944;42.590;12.630;2022-08-11T15:43:37;30.20;70.60
21568;DHT22;10944;42.590;12.630;2022-08-11T15:46:29;30.40;70.00
21568;DHT22;10944;42.590;12.630;2022-08-11T15:48:59;30.40;70.00
21568;DHT22;10944;42.590;12.630;2022-08-11T15:51:44;30.40;69.70
21568;DHT22;10944;42.590;12.630;2022-08-11T15:54:25;30.30;69.80
21568;DHT22;10944;42.590;12.630;2022-08-11T15:56:54;30.30;70.50
21568;DHT22;10944;42.590;12.630;2022-08-11T15:59:22;30.20;70.60
21568;DHT22;10944;42.590;12.630;2022-08-11T16:02:12;30.30;70.80
21568;DHT22;10944;42.590;12.630;2022-08-11T16:04:58;30.20;70.80
21568;DHT22;10944;42.590;12.630;2022-08-11T16:07:31;29.70;71.70
21568;DHT22;10944;42.590;12.630;2022-08-11T16:10:05;29.60;72.10
21568;DHT22;10944;42.590;12.630;2022-08-11T16:12:46;29.70;72.20
21568;DHT22;10944;42.590;12.630;2022-08-11T16:15:35;29.80;71.60
21568;DHT22;10944;42.590;12.630;2022-08-11T16:18:21;29.80;71.50
21568;DHT22;10944;42.590;12.630;2022-08-11T16:20:50;29.80;71.60
21568;DHT22;10944;42.590;12.630;2022-08-11T16:23:20;29.90;71.80
21568;DHT22;10944;42.590;12.630;2022-08-11T16:25:50;29.80;71.40
21568;DHT22;10944;42.590;12.630;2022-08-11T16:28:18;29.80;71.50
21568;DHT22;10944;42.590;12.630;2022-08-11T16:30:45;29.90;71.10
21568;DHT22;10944;42.590;12.630;2022-08-11T16:33:12;29.90;71.00
21568;DHT22;10944;42.590;12.630;2022-08-11T16:35:39;29.90;70.70
21568;DHT22;10944;42.590;12.630;2022-08-11T16:38:25;29.70;70.90
21568;DHT22;10944;42.590;12.630;2022-08-11T16:41:05;29.60;71.40
21568;DHT22;10944;42.590;12.630;2022-08-11T16:43:38;29.40;71.30
21568;DHT22;10944;42.590;12.630;2022-08-11T16:46:22;29.20;71.70
21568;DHT22;10944;42.590;12.630;2022-08-11T16:49:36;29.00;71.70
21568;DHT22;10944;42.590;12.630;2022-08-11T16:52:02;28.90;72.40
21568;DHT22;10944;42.590;12.630;2022-08-11T16:54:33;28.80;72.50
21568;DHT22;10944;42.590;12.630;2022-08-11T16:57:21;28.70;72.50
21568;DHT22;10944;42.590;12.630;2022-08-11T17:00:07;28.70;72.80
21568;DHT22;10944;42.590;12.630;2022-08-11T17:02:42;28.60;73.00
21568;DHT22;10944;42.590;12.630;2022-08-11T17:05:33;28.50;73.20
21568;DHT22;10944;42.590;12.630;2022-08-11T17:08:22;28.40;73.40
21568;DHT22;10944;42.590;12.630;2022-08-11T17:11:18;28.30;73.60
21568;DHT22;10944;42.590;12.630;2022-08-11T17:14:10;28.30;73.30
21568;DHT22;10944;42.590;12.630;2022-08-11T17:16:38;28.20;73.50
21568;DHT22;10944;42.590;12.630;2022-08-11T17:19:22;28.20;73.20
21568;DHT22;10944;42.590;12.630;2022-08-11T17:21:50;28.20;73.30
21568;DHT22;10944;42.590;12.630;2022-08-11T17:24:38;28.10;73.50
21568;DHT22;10944;42.590;12.630;2022-08-11T17:27:06;28.10;73.10
21568;DHT22;10944;42.590;12.630;2022-08-11T17:29:55;28.10;73.10
21568;DHT22;10944;42.590;12.630;2022-08-11T17:35:21;28.00;73.30
21568;DHT22;10944;42.590;12.630;2022-08-11T17:38:19;27.80;73.50
21568;DHT22;10944;42.590;12.630;2022-08-11T17:40:58;27.90;73.50
21568;DHT22;10944;42.590;12.630;2022-08-11T17:43:44;27.80;73.50
21568;DHT22;10944;42.590;12.630;2022-08-11T17:46:43;27.90;73.00
21568;DHT22;10944;42.590;12.630;2022-08-11T17:49:29;27.80;73.00
21568;DHT22;10944;42.590;12.630;2022-08-11T17:52:03;27.90;73.10
21568;DHT22;10944;42.590;12.630;2022-08-11T17:54:50;27.80;72.50
21568;DHT22;10944;42.590;12.630;2022-08-11T17:57:35;27.90;72.70
21568;DHT22;10944;42.590;12.630;2022-08-11T18:00:21;27.80;72.80
21568;DHT22;10944;42.590;12.630;2022-08-11T18:02:50;27.80;73.20
21568;DHT22;10944;42.590;12.630;2022-08-11T18:05:37;27.70;73.40
21568;DHT22;10944;42.590;12.630;2022-08-11T18:08:10;27.70;73.40
21568;DHT22;10944;42.590;12.630;2022-08-11T18:10:56;27.70;72.90
21568;DHT22;10944;42.590;12.630;2022-08-11T18:13:42;27.60;73.30
21568;DHT22;10944;42.590;12.630;2022-08-11T18:16:27;27.60;73.30
21568;DHT22;10944;42.590;12.630;2022-08-11T18:19:12;27.50;73.70
21568;DHT22;10944;42.590;12.630;2022-08-11T18:22:04;27.50;73.20
21568;DHT22;10944;42.590;12.630;2022-08-11T18:25:02;27.50;73.30
21568;DHT22;10944;42.590;12.630;2022-08-11T18:27:52;27.40;73.50
21568;DHT22;10944;42.590;12.630;2022-08-11T18:30:39;27.40;73.50
21568;DHT22;10944;42.590;12.630;2022-08-11T18:33:27;27.30;73.60
21568;DHT22;10944;42.590;12.630;2022-08-11T18:36:19;27.30;73.90
21568;DHT22;10944;42.590;12.630;2022-08-11T18:39:07;27.20;74.00
21568;DHT22;10944;42.590;12.630;2022-08-11T18:41:54;27.20;74.10
21568;DHT22;10944;42.590;12.630;2022-08-11T18:44:41;27.10;74.20
21568;DHT22;10944;42.590;12.630;2022-08-11T18:47:28;27.10;74.60
21568;DHT22;10944;42.590;12.630;2022-08-11T18:50:14;27.10;74.60
21568;DHT22;10944;42.590;12.630;2022-08-11T18:53:00;27.00;74.60
21568;DHT22;10944;42.590;12.630;2022-08-11T18:55:46;27.00;74.60
21568;DHT22;10944;42.590;12.630;2022-08-11T18:58:33;26.90;74.70
21568;DHT22;10944;42.590;12.630;2022-08-11T19:01:19;26.90;74.90
21568;DHT22;10944;42.590;12.630;2022-08-11T19:04:06;26.80;75.10
21568;DHT22;10944;42.590;12.630;2022-08-11T19:06:54;26.80;75.40
21568;DHT22;10944;42.590;12.630;2022-08-11T19:09:41;26.70;75.80
21568;DHT22;10944;42.590;12.630;2022-08-11T19:12:30;26.60;75.40
21568;DHT22;10944;42.590;12.630;2022-08-11T19:15:16;26.60;75.30
21568;DHT22;10944;42.590;12.630;2022-08-11T19:18:01;26.50;75.80
21568;DHT22;10944;42.590;12.630;2022-08-11T19:20:47;26.40;76.00
21568;DHT22;10944;42.590;12.630;2022-08-11T19:23:40;26.40;75.70
21568;DHT22;10944;42.590;12.630;2022-08-11T19:26:27;26.50;75.40
21568;DHT22;10944;42.590;12.630;2022-08-11T19:29:14;26.40;75.80
21568;DHT22;10944;42.590;12.630;2022-08-11T19:31:59;26.40;75.80
21568;DHT22;10944;42.590;12.630;2022-08-11T19:34:45;26.40;75.20
21568;DHT22;10944;42.590;12.630;2022-08-11T19:37:31;26.50;75.30
21568;DHT22;10944;42.590;12.630;2022-08-11T19:40:16;26.50;75.30
21568;DHT22;10944;42.590;12.630;2022-08-11T19:43:00;26.40;75.30
21568;DHT22;10944;42.590;12.630;2022-08-11T19:45:47;26.30;75.90
21568;DHT22;10944;42.590;12.630;2022-08-11T19:48:33;26.20;76.10
21568;DHT22;10944;42.590;12.630;2022-08-11T19:51:19;26.00;76.40